createdAt,value
2023-05-11T06:32:21.073Z,2.30
2023-05-11T06:35:13.783Z,2.00
2023-05-11T06:38:07.941Z,1.20
2023-05-11T06:41:00.724Z,2.00
2023-05-11T06:43:52.492Z,1.90
2023-05-11T06:46:51.619Z,2.30
2023-05-11T06:49:46.426Z,2.70
2023-05-11T06:52:40.460Z,2.40
2023-05-11T06:55:33.940Z,1.30
2023-05-11T06:58:25.978Z,1.60
2023-05-11T07:01:09.264Z,1.60
2023-05-11T07:03:54.172Z,1.60
2023-05-11T07:06:48.210Z,1.60
2023-05-11T07:09:41.998Z,1.40
2023-05-11T07:12:35.650Z,1.50
2023-05-11T07:15:22.621Z,1.30
2023-05-11T07:18:54.690Z,2.00
2023-05-11T07:21:46.355Z,1.60
2023-05-11T07:24:39.565Z,1.10
2023-05-11T07:27:45.846Z,1.40
2023-05-11T07:30:46.092Z,1.20
2023-05-11T07:33:40.919Z,1.20
2023-05-11T07:36:33.680Z,1.20
2023-05-11T07:39:17.292Z,1.30
2023-05-11T07:42:09.691Z,1.30
2023-05-11T07:45:02.652Z,1.50
2023-05-11T07:47:46.259Z,1.40
2023-05-11T07:50:41.393Z,1.60
2023-05-11T07:53:36.839Z,1.00
2023-05-11T07:56:29.410Z,1.30
2023-05-11T07:59:12.018Z,1.40
2023-05-11T08:02:04.866Z,1.10
2023-05-11T08:04:47.803Z,1.20
2023-05-11T08:07:41.779Z,1.10
2023-05-11T08:10:35.430Z,1.20
2023-05-11T08:13:28.627Z,1.10
2023-05-11T08:16:21.932Z,1.50
2023-05-11T08:19:14.350Z,1.20
2023-05-11T08:22:07.785Z,1.40
2023-05-11T08:25:00.332Z,1.10
2023-05-11T08:27:52.622Z,1.40
2023-05-11T08:30:45.296Z,1.10
2023-05-11T08:33:38.888Z,1.20
2023-05-11T08:36:32.064Z,1.30
2023-05-11T08:39:43.714Z,1.20
2023-05-11T08:42:30.575Z,1.50
2023-05-11T08:45:24.101Z,1.30
2023-05-11T08:48:11.456Z,1.20
2023-05-11T08:51:05.429Z,1.30
2023-05-11T08:53:59.893Z,1.60
2023-05-11T08:56:54.754Z,1.50
2023-05-11T08:59:49.131Z,1.20
2023-05-11T09:02:32.911Z,1.70
2023-05-11T09:05:20.597Z,1.50
2023-05-11T09:08:15.474Z,2.20
2023-05-11T09:11:11.108Z,1.90
2023-05-11T09:14:04.752Z,1.60
2023-05-11T09:16:58.923Z,1.50
2023-05-11T09:20:06.669Z,1.80
2023-05-11T09:22:59.605Z,1.70
2023-05-11T09:25:52.005Z,1.50
2023-05-11T09:29:02.371Z,1.90
2023-05-11T09:31:56.986Z,1.90
2023-05-11T09:34:49.349Z,1.80
2023-05-11T09:37:57.832Z,1.30
2023-05-11T09:40:56.310Z,1.40
2023-05-11T09:43:50.323Z,1.60
2023-05-11T09:46:44.739Z,1.40
2023-05-11T09:49:53.007Z,1.50
2023-05-11T09:52:53.523Z,1.50
2023-05-11T09:55:54.691Z,1.40
2023-05-11T09:58:52.637Z,1.50
2023-05-11T10:01:45.463Z,1.70
2023-05-11T10:04:38.050Z,1.30
2023-05-11T10:07:32.254Z,1.70
2023-05-11T10:10:25.505Z,1.40
2023-05-11T10:13:18.028Z,1.50
2023-05-11T10:16:13.342Z,1.60
2023-05-11T10:19:06.572Z,1.30
2023-05-11T10:21:57.873Z,1.50
2023-05-11T10:24:51.409Z,1.50
2023-05-11T10:27:40.181Z,1.50
2023-05-11T10:30:13.837Z,1.40
2023-05-11T10:33:07.666Z,1.60
2023-05-11T10:36:01.241Z,1.40
2023-05-11T10:38:55.846Z,1.50
2023-05-11T10:42:06.063Z,1.60
2023-05-11T10:45:14.067Z,1.70
2023-05-11T10:48:40.314Z,1.70
2023-05-11T10:51:41.875Z,1.60
2023-05-11T10:54:51.549Z,1.50
2023-05-11T10:58:09.621Z,1.40
2023-05-11T11:01:27.341Z,1.50
2023-05-11T11:04:20.620Z,1.80
2023-05-11T11:07:09.104Z,1.50
2023-05-11T11:10:06.785Z,1.60
2023-05-11T11:13:07.364Z,1.50
2023-05-11T11:16:16.746Z,1.40
2023-05-11T11:19:42.164Z,1.50
2023-05-11T11:22:51.369Z,1.40
2023-05-11T11:25:56.413Z,1.90
2023-05-11T11:29:13.641Z,1.50
2023-05-11T11:32:30.234Z,1.70
2023-05-11T11:35:50.041Z,1.80
2023-05-11T11:38:34.269Z,1.50
2023-05-11T11:41:34.234Z,1.60
2023-05-11T11:44:27.876Z,1.80
2023-05-11T11:47:34.029Z,1.70
2023-05-11T11:50:31.069Z,1.60
2023-05-11T11:54:10.168Z,2.00
2023-05-11T11:57:03.082Z,1.60
2023-05-11T11:59:55.751Z,1.60
2023-05-11T12:02:49.308Z,1.80
2023-05-11T12:05:45.586Z,1.80
2023-05-11T12:08:40.401Z,1.40
2023-05-11T12:11:33.186Z,1.50
2023-05-11T12:14:26.463Z,1.80
2023-05-11T12:17:25.268Z,1.80
2023-05-11T12:20:20.673Z,1.80
2023-05-11T12:23:15.575Z,1.80
2023-05-11T12:26:11.969Z,1.60
2023-05-11T12:29:11.863Z,1.80
2023-05-11T12:32:05.451Z,1.70
2023-05-11T12:35:06.154Z,1.80
2023-05-11T12:38:00.833Z,2.10
2023-05-11T12:40:54.910Z,1.70
2023-05-11T12:43:47.360Z,1.80
2023-05-11T12:46:40.169Z,1.80
2023-05-11T12:49:32.653Z,1.80
2023-05-11T12:52:17.778Z,1.60
2023-05-11T12:55:11.891Z,2.10
2023-05-11T12:58:15.370Z,1.90
2023-05-11T13:01:11.328Z,1.80
2023-05-11T13:03:54.474Z,1.70
2023-05-11T13:06:38.413Z,2.00
2023-05-11T13:09:27.701Z,2.00
2023-05-11T13:12:21.300Z,2.20
2023-05-11T13:15:16.628Z,1.90
2023-05-11T13:18:03.710Z,2.00
2023-05-11T13:21:10.016Z,2.00
2023-05-11T13:24:04.183Z,1.90
2023-05-11T13:26:58.623Z,1.80
2023-05-11T13:29:50.908Z,1.90
2023-05-11T13:32:43.417Z,1.80
2023-05-11T13:35:39.329Z,1.80
2023-05-11T13:38:32.182Z,1.60
2023-05-11T13:41:17.332Z,1.80
2023-05-11T13:44:10.094Z,1.60
2023-05-11T13:46:56.031Z,1.70
2023-05-11T13:49:49.169Z,1.90
2023-05-11T13:52:42.175Z,2.00
2023-05-11T13:55:34.559Z,1.80
2023-05-11T13:58:28.314Z,1.60
2023-05-11T14:01:20.876Z,2.10
2023-05-11T14:04:12.755Z,2.00
2023-05-11T14:07:05.980Z,1.90
2023-05-11T14:09:58.418Z,2.10
2023-05-11T14:12:39.705Z,2.00
2023-05-11T14:15:32.905Z,1.90
2023-05-11T14:18:26.195Z,2.20
2023-05-11T14:21:18.957Z,1.90
2023-05-11T14:24:12.766Z,1.70
2023-05-11T14:27:00.494Z,2.00
2023-05-11T14:29:53.160Z,2.10
2023-05-11T14:32:46.055Z,2.30
2023-05-11T14:35:40.107Z,1.80
2023-05-11T14:38:32.924Z,1.90
2023-05-11T14:41:25.775Z,1.90
2023-05-11T14:44:19.049Z,2.00
2023-05-11T14:47:12.052Z,2.00
2023-05-11T14:50:04.759Z,1.90
2023-05-11T14:52:57.040Z,1.60
2023-05-11T14:55:49.485Z,1.70
2023-05-11T14:58:42.025Z,1.90
2023-05-11T15:02:19.785Z,1.60
2023-05-11T15:04:47.516Z,1.80
2023-05-11T15:07:33.483Z,1.50
2023-05-11T15:10:16.898Z,1.70
2023-05-11T15:13:10.285Z,1.90
2023-05-11T15:16:01.546Z,1.60
2023-05-11T15:18:53.838Z,1.80
2023-05-11T15:21:46.280Z,1.60
2023-05-11T15:24:40.014Z,1.70
2023-05-11T15:27:32.740Z,1.70
2023-05-11T15:30:25.827Z,1.80
2023-05-11T15:33:18.481Z,1.60
2023-05-11T15:36:02.560Z,1.70
2023-05-11T15:38:54.907Z,1.40
2023-05-11T15:41:47.663Z,1.40
2023-05-11T15:44:41.647Z,1.70
2023-05-11T15:47:34.284Z,1.60
2023-05-11T15:50:27.815Z,1.60
2023-05-11T15:53:20.358Z,1.60
2023-05-11T15:56:04.080Z,1.60
2023-05-11T15:58:56.589Z,1.50
2023-05-11T16:01:49.566Z,1.70
2023-05-11T16:04:42.193Z,1.60
2023-05-11T16:07:27.471Z,1.40
2023-05-11T16:10:20.202Z,1.60
2023-05-11T16:13:12.869Z,1.90
2023-05-11T16:16:07.836Z,1.90
2023-05-11T16:19:00.651Z,1.60
2023-05-11T16:21:53.482Z,1.70
2023-05-11T16:24:46.469Z,1.50
2023-05-11T16:27:41.326Z,1.80
2023-05-11T16:30:34.040Z,1.60
2023-05-11T16:33:26.839Z,1.50
2023-05-11T16:36:19.220Z,2.00
2023-05-11T16:39:13.058Z,1.70
2023-05-11T16:42:06.595Z,1.60
2023-05-11T16:44:56.044Z,1.60
2023-05-11T16:47:48.597Z,1.70
2023-05-11T16:50:41.231Z,1.80
2023-05-11T16:53:33.862Z,1.20
2023-05-11T16:56:26.747Z,1.50
2023-05-11T16:59:19.447Z,1.60
2023-05-11T17:02:12.205Z,1.50
2023-05-11T17:05:05.680Z,1.80
2023-05-11T17:07:58.041Z,1.70
2023-05-11T17:10:41.569Z,1.70
2023-05-11T17:13:35.201Z,1.30
2023-05-11T17:16:28.770Z,1.40
2023-05-11T17:19:21.446Z,1.60
2023-05-11T17:22:03.571Z,1.70
2023-05-11T17:24:58.293Z,1.60
2023-05-11T17:27:52.762Z,1.30
2023-05-11T17:30:48.208Z,1.60
2023-05-11T17:33:43.618Z,1.60
2023-05-11T17:36:36.806Z,1.90
2023-05-11T17:39:21.493Z,1.70
2023-05-11T17:42:14.275Z,1.40
2023-05-11T17:45:10.249Z,1.50
2023-05-11T17:48:03.160Z,1.20
2023-05-11T17:50:51.879Z,1.60
2023-05-11T17:53:44.181Z,1.30
2023-05-11T17:56:37.128Z,1.70
2023-05-11T17:59:31.585Z,1.40
2023-05-11T18:02:25.085Z,1.50
2023-05-11T18:05:18.531Z,1.50
2023-05-11T18:08:11.049Z,1.80
2023-05-11T18:11:04.169Z,1.50
2023-05-11T18:13:56.986Z,1.60
2023-05-11T18:16:51.154Z,1.50
2023-05-11T18:19:44.108Z,1.30
2023-05-11T18:22:37.843Z,1.60
2023-05-11T18:25:32.508Z,1.40
2023-05-11T18:28:24.964Z,1.40
2023-05-11T18:31:19.424Z,1.60
2023-05-11T18:34:11.886Z,1.60
2023-05-11T18:37:04.685Z,1.60
2023-05-11T18:39:57.428Z,2.80
2023-05-11T18:42:49.890Z,3.20
2023-05-11T18:45:41.623Z,3.00
2023-05-11T18:48:35.941Z,2.10
2023-05-11T18:51:29.117Z,1.90
2023-05-11T18:54:12.908Z,2.10
2023-05-11T18:56:58.658Z,1.90
2023-05-11T18:59:52.083Z,1.80
2023-05-11T19:02:39.170Z,1.90
2023-05-11T19:05:32.770Z,1.70
2023-05-11T19:08:25.929Z,1.80
2023-05-11T19:11:18.767Z,1.40
2023-05-11T19:14:14.700Z,1.60
2023-05-11T19:17:08.281Z,1.40
2023-05-11T19:20:00.960Z,1.90
2023-05-11T19:22:53.583Z,1.60
2023-05-11T19:25:46.326Z,1.50
2023-05-11T19:28:40.329Z,1.50
2023-05-11T19:31:33.087Z,1.50
2023-05-11T19:34:25.939Z,1.80
2023-05-11T19:37:18.972Z,2.10
2023-05-11T19:40:44.029Z,1.50
2023-05-11T19:43:38.490Z,1.60
2023-05-11T19:46:31.209Z,2.00
2023-05-11T19:49:17.780Z,1.80
2023-05-11T19:52:10.681Z,2.10
2023-05-11T19:55:03.658Z,2.10
2023-05-11T19:57:38.626Z,1.80
2023-05-11T20:00:25.445Z,2.00
2023-05-11T20:03:18.701Z,2.10
2023-05-11T20:06:11.526Z,1.30
2023-05-11T20:09:05.578Z,1.80
2023-05-11T20:11:51.569Z,2.10
2023-05-11T20:14:44.083Z,1.90
2023-05-11T20:17:27.749Z,2.10
2023-05-11T20:20:20.529Z,2.40
2023-05-11T20:23:13.472Z,2.40
2023-05-11T20:25:53.841Z,2.10
2023-05-11T20:28:27.579Z,2.30
2023-05-11T20:31:21.781Z,2.30
2023-05-11T20:34:14.330Z,2.10
2023-05-11T20:37:09.075Z,2.20
2023-05-11T20:40:01.603Z,2.30
2023-05-11T20:42:54.012Z,2.10
2023-05-11T20:45:37.880Z,1.40
2023-05-11T20:48:39.080Z,2.30
2023-05-11T20:51:35.270Z,2.10
2023-05-11T20:54:28.503Z,1.90
2023-05-11T20:57:22.442Z,2.90
2023-05-11T21:02:53.896Z,2.50
2023-05-11T21:05:46.754Z,2.90
2023-05-11T21:08:31.768Z,2.30
2023-05-11T21:11:13.185Z,3.00
2023-05-11T21:14:06.040Z,2.50
2023-05-11T21:16:58.565Z,2.40
2023-05-11T21:19:50.946Z,2.40
2023-05-11T21:22:43.562Z,2.10
2023-05-11T21:25:36.897Z,2.60
2023-05-11T21:28:29.622Z,2.50
2023-05-11T21:31:22.182Z,2.10
2023-05-11T21:34:15.438Z,2.20
2023-05-11T21:37:08.917Z,2.20
2023-05-11T21:40:00.452Z,2.50
2023-05-11T21:42:52.796Z,2.30
2023-05-11T21:45:47.105Z,2.20
2023-05-11T21:48:42.534Z,2.60
2023-05-11T21:51:37.233Z,2.40
2023-05-11T21:54:29.592Z,2.50
2023-05-11T21:57:22.211Z,2.30
2023-05-11T22:00:18.851Z,2.20
2023-05-11T22:03:12.159Z,2.00
2023-05-11T22:06:05.183Z,2.60
2023-05-11T22:08:57.876Z,1.80
2023-05-11T22:11:50.172Z,2.30
2023-05-11T22:14:36.878Z,1.90
2023-05-11T22:17:29.718Z,2.40
2023-05-11T22:20:22.200Z,2.30
2023-05-11T22:23:04.692Z,2.70
2023-05-11T22:25:56.932Z,2.30
2023-05-11T22:28:49.346Z,2.20
2023-05-11T22:31:44.046Z,2.40
2023-05-11T22:34:31.302Z,2.20
2023-05-11T22:37:23.933Z,2.80
2023-05-11T22:40:17.151Z,2.40
2023-05-11T22:43:10.249Z,2.10
2023-05-11T22:46:02.802Z,2.10
2023-05-11T22:48:55.557Z,2.30
2023-05-11T22:51:48.561Z,2.70
2023-05-11T22:54:36.730Z,2.30
2023-05-11T22:57:29.657Z,1.50
2023-05-11T23:00:14.257Z,2.10
2023-05-11T23:03:07.722Z,2.10
2023-05-11T23:06:00.591Z,2.40
2023-05-11T23:08:53.905Z,2.30
2023-05-11T23:11:41.580Z,2.20
2023-05-11T23:14:29.628Z,2.10
2023-05-11T23:17:22.366Z,2.70
2023-05-11T23:20:15.737Z,2.00
2023-05-11T23:23:01.500Z,2.40
2023-05-11T23:25:53.887Z,2.30
2023-05-11T23:28:46.866Z,2.50
2023-05-11T23:31:34.443Z,2.20
2023-05-11T23:34:29.104Z,2.20
2023-05-11T23:37:22.307Z,2.20
2023-05-11T23:40:15.327Z,2.70
2023-05-11T23:43:08.506Z,1.90
2023-05-11T23:46:01.321Z,2.30
2023-05-11T23:48:53.685Z,2.30
2023-05-11T23:51:46.195Z,1.90
2023-05-11T23:54:38.549Z,2.20
2023-05-11T23:57:31.674Z,2.60
